sensor_id;sensor_type;location;lat;lon;timestamp;temperature;humidity
31735;DHT22;18313;48.518;9.124;2023-08-24T00:00:30;20.90;99.90
31735;DHT22;18313;48.518;9.124;2023-08-24T00:02:59;20.80;99.90
31735;DHT22;18313;48.518;9.124;2023-08-24T00:05:26;20.70;99.90
31735;DHT22;18313;48.518;9.124;2023-08-24T00:07:54;20.60;99.90
31735;DHT22;18313;48.518;9.124;2023-08-24T00:10:21;20.50;99.90
31735;DHT22;18313;48.518;9.124;2023-08-24T00:12:48;20.40;99.90
31735;DHT22;18313;48.518;9.124;2023-08-24T00:15:15;20.50;99.90
31735;DHT22;18313;48.518;9.124;2023-08-24T00:17:42;20.50;99.90
31735;DHT22;18313;48.518;9.124;2023-08-24T00:20:09;20.50;99.90
31735;DHT22;18313;48.518;9.124;2023-08-24T00:22:40;20.40;99.90
31735;DHT22;18313;48.518;9.124;2023-08-24T00:25:08;20.40;99.90
31735;DHT22;18313;48.518;9.124;2023-08-24T00:27:36;20.50;99.90
31735;DHT22;18313;48.518;9.124;2023-08-24T00:30:04;20.40;99.90
31735;DHT22;18313;48.518;9.124;2023-08-24T00:32:34;20.40;99.90
31735;DHT22;18313;48.518;9.124;2023-08-24T00:35:05;20.30;99.90
31735;DHT22;18313;48.518;9.124;2023-08-24T00:37:33;20.30;99.90
31735;DHT22;18313;48.518;9.124;2023-08-24T00:40:02;20.30;99.90
31735;DHT22;18313;48.518;9.124;2023-08-24T00:42:31;20.40;99.90
31735;DHT22;18313;48.518;9.124;2023-08-24T00:44:58;20.30;99.90
31735;DHT22;18313;48.518;9.124;2023-08-24T00:47:25;20.20;99.90
31735;DHT22;18313;48.518;9.124;2023-08-24T00:49:53;20.20;99.90
31735;DHT22;18313;48.518;9.124;2023-08-24T00:52:20;20.20;99.90
31735;DHT22;18313;48.518;9.124;2023-08-24T00:54:47;20.20;99.90
31735;DHT22;18313;48.518;9.124;2023-08-24T00:57:15;20.20;99.90
31735;DHT22;18313;48.518;9.124;2023-08-24T00:59:42;20.20;99.90
31735;DHT22;18313;48.518;9.124;2023-08-24T01:02:09;20.20;99.90
31735;DHT22;18313;48.518;9.124;2023-08-24T01:04:37;20.20;99.90
31735;DHT22;18313;48.518;9.124;2023-08-24T01:07:04;20.10;99.90
31735;DHT22;18313;48.518;9.124;2023-08-24T01:09:31;20.10;99.90
31735;DHT22;18313;48.518;9.124;2023-08-24T01:14:54;20.00;99.90
31735;DHT22;18313;48.518;9.124;2023-08-24T01:17:27;19.90;99.90
31735;DHT22;18313;48.518;9.124;2023-08-24T01:19:58;19.90;99.90
31735;DHT22;18313;48.518;9.124;2023-08-24T01:22:47;19.90;99.90
31735;DHT22;18313;48.518;9.124;2023-08-24T01:28:00;19.80;99.90
31735;DHT22;18313;48.518;9.124;2023-08-24T01:30:29;19.80;99.90
31735;DHT22;18313;48.518;9.124;2023-08-24T01:32:57;19.80;99.90
31735;DHT22;18313;48.518;9.124;2023-08-24T01:35:24;19.80;99.90
31735;DHT22;18313;48.518;9.124;2023-08-24T01:37:52;19.80;99.90
31735;DHT22;18313;48.518;9.124;2023-08-24T01:40:36;19.80;99.90
31735;DHT22;18313;48.518;9.124;2023-08-24T01:43:07;19.70;99.90
31735;DHT22;18313;48.518;9.124;2023-08-24T01:45:37;19.70;99.90
31735;DHT22;18313;48.518;9.124;2023-08-24T01:48:06;19.70;99.90
31735;DHT22;18313;48.518;9.124;2023-08-24T01:50:34;19.70;99.90
31735;DHT22;18313;48.518;9.124;2023-08-24T01:53:02;19.60;99.90
31735;DHT22;18313;48.518;9.124;2023-08-24T01:55:29;19.60;99.90
31735;DHT22;18313;48.518;9.124;2023-08-24T01:57:56;19.70;99.90
31735;DHT22;18313;48.518;9.124;2023-08-24T02:00:23;19.70;99.90
31735;DHT22;18313;48.518;9.124;2023-08-24T02:02:51;19.70;99.90
31735;DHT22;18313;48.518;9.124;2023-08-24T02:05:18;19.60;99.90
31735;DHT22;18313;48.518;9.124;2023-08-24T02:07:45;19.60;99.90
31735;DHT22;18313;48.518;9.124;2023-08-24T02:10:12;19.50;99.90
31735;DHT22;18313;48.518;9.124;2023-08-24T02:12:39;19.60;99.90
31735;DHT22;18313;48.518;9.124;2023-08-24T02:15:06;19.50;99.90
31735;DHT22;18313;48.518;9.124;2023-08-24T02:17:33;19.60;99.90
31735;DHT22;18313;48.518;9.124;2023-08-24T02:20:01;19.50;99.90
31735;DHT22;18313;48.518;9.124;2023-08-24T02:22:29;19.50;99.90
31735;DHT22;18313;48.518;9.124;2023-08-24T02:24:57;19.50;99.90
31735;DHT22;18313;48.518;9.124;2023-08-24T02:27:24;19.50;99.90
31735;DHT22;18313;48.518;9.124;2023-08-24T02:29:51;19.40;99.90
31735;DHT22;18313;48.518;9.124;2023-08-24T02:32:18;19.40;99.90
31735;DHT22;18313;48.518;9.124;2023-08-24T02:34:45;19.40;99.90
31735;DHT22;18313;48.518;9.124;2023-08-24T02:37:12;19.40;99.90
31735;DHT22;18313;48.518;9.124;2023-08-24T02:39:39;19.40;99.90
31735;DHT22;18313;48.518;9.124;2023-08-24T02:42:06;19.40;99.90
31735;DHT22;18313;48.518;9.124;2023-08-24T02:44:33;19.40;99.90
31735;DHT22;18313;48.518;9.124;2023-08-24T02:47:01;19.40;99.90
31735;DHT22;18313;48.518;9.124;2023-08-24T02:49:28;19.30;99.90
31735;DHT22;18313;48.518;9.124;2023-08-24T02:51:55;19.40;99.90
31735;DHT22;18313;48.518;9.124;2023-08-24T02:54:22;19.40;99.90
31735;DHT22;18313;48.518;9.124;2023-08-24T02:56:49;19.30;99.90
31735;DHT22;18313;48.518;9.124;2023-08-24T02:59:16;19.10;99.90
31735;DHT22;18313;48.518;9.124;2023-08-24T03:01:44;18.90;99.90
31735;DHT22;18313;48.518;9.124;2023-08-24T03:04:11;18.90;99.90
31735;DHT22;18313;48.518;9.124;2023-08-24T03:06:38;19.00;99.90
31735;DHT22;18313;48.518;9.124;2023-08-24T03:09:05;19.00;99.90
31735;DHT22;18313;48.518;9.124;2023-08-24T03:11:32;19.10;99.90
31735;DHT22;18313;48.518;9.124;2023-08-24T03:13:59;19.20;99.90
31735;DHT22;18313;48.518;9.124;2023-08-24T03:16:27;19.20;99.90
31735;DHT22;18313;48.518;9.124;2023-08-24T03:18:54;19.20;99.90
31735;DHT22;18313;48.518;9.124;2023-08-24T03:21:21;19.20;99.90
31735;DHT22;18313;48.518;9.124;2023-08-24T03:23:48;19.30;99.90
31735;DHT22;18313;48.518;9.124;2023-08-24T03:26:16;19.20;99.90
31735;DHT22;18313;48.518;9.124;2023-08-24T03:28:43;19.10;99.90
31735;DHT22;18313;48.518;9.124;2023-08-24T03:31:10;19.10;99.90
31735;DHT22;18313;48.518;9.124;2023-08-24T03:33:38;19.00;99.90
31735;DHT22;18313;48.518;9.124;2023-08-24T03:36:05;19.20;99.90
31735;DHT22;18313;48.518;9.124;2023-08-24T03:38:32;19.10;99.90
31735;DHT22;18313;48.518;9.124;2023-08-24T03:41:03;19.00;99.90
31735;DHT22;18313;48.518;9.124;2023-08-24T03:43:34;19.00;99.90
31735;DHT22;18313;48.518;9.124;2023-08-24T03:46:02;18.90;99.90
31735;DHT22;18313;48.518;9.124;2023-08-24T03:48:31;18.80;99.90
31735;DHT22;18313;48.518;9.124;2023-08-24T03:50:59;18.70;99.90
31735;DHT22;18313;48.518;9.124;2023-08-24T03:53:26;18.60;99.90
31735;DHT22;18313;48.518;9.124;2023-08-24T03:55:54;18.60;99.90
31735;DHT22;18313;48.518;9.124;2023-08-24T03:58:21;18.60;99.90
31735;DHT22;18313;48.518;9.124;2023-08-24T04:00:48;18.50;99.90
31735;DHT22;18313;48.518;9.124;2023-08-24T04:03:16;18.60;99.90
31735;DHT22;18313;48.518;9.124;2023-08-24T04:05:44;18.60;99.90
31735;DHT22;18313;48.518;9.124;2023-08-24T04:08:11;18.60;99.90
31735;DHT22;18313;48.518;9.124;2023-08-24T04:10:38;18.90;99.90
31735;DHT22;18313;48.518;9.124;2023-08-24T04:13:05;18.90;99.90
31735;DHT22;18313;48.518;9.124;2023-08-24T04:15:32;18.90;99.90
31735;DHT22;18313;48.518;9.124;2023-08-24T04:17:59;18.80;99.90
31735;DHT22;18313;48.518;9.124;2023-08-24T04:20:26;18.80;99.90
31735;DHT22;18313;48.518;9.124;2023-08-24T04:22:54;18.70;99.90
31735;DHT22;18313;48.518;9.124;2023-08-24T04:25:21;18.60;99.90
31735;DHT22;18313;48.518;9.124;2023-08-24T04:27:48;18.70;99.90
31735;DHT22;18313;48.518;9.124;2023-08-24T04:30:16;18.70;99.90
31735;DHT22;18313;48.518;9.124;2023-08-24T04:32:43;18.60;99.90
31735;DHT22;18313;48.518;9.124;2023-08-24T04:35:10;18.80;99.90
31735;DHT22;18313;48.518;9.124;2023-08-24T04:37:37;18.90;99.90
31735;DHT22;18313;48.518;9.124;2023-08-24T04:40:05;19.00;99.90
31735;DHT22;18313;48.518;9.124;2023-08-24T04:42:34;19.00;99.90
31735;DHT22;18313;48.518;9.124;2023-08-24T04:45:01;18.90;99.90
31735;DHT22;18313;48.518;9.124;2023-08-24T04:47:28;18.80;99.90
31735;DHT22;18313;48.518;9.124;2023-08-24T04:49:56;18.80;99.90
31735;DHT22;18313;48.518;9.124;2023-08-24T04:52:23;18.70;99.90
31735;DHT22;18313;48.518;9.124;2023-08-24T04:54:50;18.60;99.90
31735;DHT22;18313;48.518;9.124;2023-08-24T04:57:18;18.50;99.90
31735;DHT22;18313;48.518;9.124;2023-08-24T04:59:45;18.40;99.90
31735;DHT22;18313;48.518;9.124;2023-08-24T05:02:12;18.30;99.90
31735;DHT22;18313;48.518;9.124;2023-08-24T05:04:39;18.50;99.90
31735;DHT22;18313;48.518;9.124;2023-08-24T05:07:06;18.50;99.90
31735;DHT22;18313;48.518;9.124;2023-08-24T05:09:33;18.60;99.90
31735;DHT22;18313;48.518;9.124;2023-08-24T05:12:00;18.70;99.90
31735;DHT22;18313;48.518;9.124;2023-08-24T05:14:27;18.80;99.90
31735;DHT22;18313;48.518;9.124;2023-08-24T05:16:54;18.80;99.90
31735;DHT22;18313;48.518;9.124;2023-08-24T05:19:22;18.90;99.90
31735;DHT22;18313;48.518;9.124;2023-08-24T05:21:49;19.00;99.90
31735;DHT22;18313;48.518;9.124;2023-08-24T05:24:16;19.10;99.90
31735;DHT22;18313;48.518;9.124;2023-08-24T05:26:43;19.30;99.90
31735;DHT22;18313;48.518;9.124;2023-08-24T05:29:10;19.30;99.90
31735;DHT22;18313;48.518;9.124;2023-08-24T05:31:37;19.40;99.90
31735;DHT22;18313;48.518;9.124;2023-08-24T05:34:04;19.50;99.90
31735;DHT22;18313;48.518;9.124;2023-08-24T05:36:31;19.60;99.90
31735;DHT22;18313;48.518;9.124;2023-08-24T05:38:58;19.70;99.90
31735;DHT22;18313;48.518;9.124;2023-08-24T05:41:32;19.80;99.90
31735;DHT22;18313;48.518;9.124;2023-08-24T05:43:59;19.80;99.90
31735;DHT22;18313;48.518;9.124;2023-08-24T05:46:27;19.80;99.90
31735;DHT22;18313;48.518;9.124;2023-08-24T05:48:57;19.80;99.90
31735;DHT22;18313;48.518;9.124;2023-08-24T05:51:25;19.80;99.90
31735;DHT22;18313;48.518;9.124;2023-08-24T05:53:52;19.80;99.90
31735;DHT22;18313;48.518;9.124;2023-08-24T05:56:22;19.90;99.90
31735;DHT22;18313;48.518;9.124;2023-08-24T05:58:58;20.10;99.90
31735;DHT22;18313;48.518;9.124;2023-08-24T06:01:25;20.10;99.90
31735;DHT22;18313;48.518;9.124;2023-08-24T06:03:53;20.10;99.90
31735;DHT22;18313;48.518;9.124;2023-08-24T06:06:21;20.10;99.90
31735;DHT22;18313;48.518;9.124;2023-08-24T06:08:48;20.20;99.90
31735;DHT22;18313;48.518;9.124;2023-08-24T06:11:16;20.20;99.90
31735;DHT22;18313;48.518;9.124;2023-08-24T06:13:43;20.30;99.90
31735;DHT22;18313;48.518;9.124;2023-08-24T06:16:10;20.30;99.90
31735;DHT22;18313;48.518;9.124;2023-08-24T06:18:37;20.30;99.90
31735;DHT22;18313;48.518;9.124;2023-08-24T06:21:04;20.30;99.90
31735;DHT22;18313;48.518;9.124;2023-08-24T06:23:31;20.30;99.90
31735;DHT22;18313;48.518;9.124;2023-08-24T06:25:58;20.30;99.90
31735;DHT22;18313;48.518;9.124;2023-08-24T06:28:26;20.40;99.90
31735;DHT22;18313;48.518;9.124;2023-08-24T06:30:55;20.50;99.90
31735;DHT22;18313;48.518;9.124;2023-08-24T06:33:27;20.40;99.90
31735;DHT22;18313;48.518;9.124;2023-08-24T06:35:57;20.40;99.90
31735;DHT22;18313;48.518;9.124;2023-08-24T06:38:25;20.50;99.90
31735;DHT22;18313;48.518;9.124;2023-08-24T06:40:52;20.50;99.90
31735;DHT22;18313;48.518;9.124;2023-08-24T06:43:19;20.60;99.90
31735;DHT22;18313;48.518;9.124;2023-08-24T06:45:46;20.70;99.90
31735;DHT22;18313;48.518;9.124;2023-08-24T06:48:13;20.70;99.90
31735;DHT22;18313;48.518;9.124;2023-08-24T06:50:41;20.80;99.90
31735;DHT22;18313;48.518;9.124;2023-08-24T06:53:08;20.90;99.90
31735;DHT22;18313;48.518;9.124;2023-08-24T06:55:35;20.90;99.90
31735;DHT22;18313;48.518;9.124;2023-08-24T06:58:03;21.00;99.90
31735;DHT22;18313;48.518;9.124;2023-08-24T07:00:33;21.10;99.90
31735;DHT22;18313;48.518;9.124;2023-08-24T07:03:00;21.10;99.90
31735;DHT22;18313;48.518;9.124;2023-08-24T07:05:28;21.10;99.90
31735;DHT22;18313;48.518;9.124;2023-08-24T07:07:55;21.10;99.90
31735;DHT22;18313;48.518;9.124;2023-08-24T07:10:23;21.10;99.90
31735;DHT22;18313;48.518;9.124;2023-08-24T07:12:50;21.20;99.90
31735;DHT22;18313;48.518;9.124;2023-08-24T07:15:17;21.20;99.90
31735;DHT22;18313;48.518;9.124;2023-08-24T07:17:44;21.20;99.90
31735;DHT22;18313;48.518;9.124;2023-08-24T07:20:12;21.40;99.90
31735;DHT22;18313;48.518;9.124;2023-08-24T07:22:40;21.50;99.90
31735;DHT22;18313;48.518;9.124;2023-08-24T07:25:08;21.50;99.90
31735;DHT22;18313;48.518;9.124;2023-08-24T07:27:35;21.60;99.90
31735;DHT22;18313;48.518;9.124;2023-08-24T07:30:03;21.70;99.90
31735;DHT22;18313;48.518;9.124;2023-08-24T07:32:48;21.90;99.90
31735;DHT22;18313;48.518;9.124;2023-08-24T07:35:15;22.00;99.90
31735;DHT22;18313;48.518;9.124;2023-08-24T07:37:43;22.20;99.90
31735;DHT22;18313;48.518;9.124;2023-08-24T07:40:10;22.30;99.90
31735;DHT22;18313;48.518;9.124;2023-08-24T07:42:50;22.40;99.90
31735;DHT22;18313;48.518;9.124;2023-08-24T07:45:18;22.50;99.90
31735;DHT22;18313;48.518;9.124;2023-08-24T07:47:45;22.60;99.90
31735;DHT22;18313;48.518;9.124;2023-08-24T07:50:12;22.70;99.90
31735;DHT22;18313;48.518;9.124;2023-08-24T07:52:39;22.70;99.90
31735;DHT22;18313;48.518;9.124;2023-08-24T07:55:07;22.80;99.90
31735;DHT22;18313;48.518;9.124;2023-08-24T07:57:36;22.90;99.90
31735;DHT22;18313;48.518;9.124;2023-08-24T08:00:04;22.90;99.90
31735;DHT22;18313;48.518;9.124;2023-08-24T08:02:36;23.00;99.90
31735;DHT22;18313;48.518;9.124;2023-08-24T08:05:05;23.10;99.90
31735;DHT22;18313;48.518;9.124;2023-08-24T08:07:34;23.10;99.90
31735;DHT22;18313;48.518;9.124;2023-08-24T08:10:04;23.20;99.90
31735;DHT22;18313;48.518;9.124;2023-08-24T08:12:31;23.20;99.90
31735;DHT22;18313;48.518;9.124;2023-08-24T08:14:59;23.10;99.90
31735;DHT22;18313;48.518;9.124;2023-08-24T08:17:26;23.30;99.90
31735;DHT22;18313;48.518;9.124;2023-08-24T08:19:55;23.50;99.90
31735;DHT22;18313;48.518;9.124;2023-08-24T08:22:23;23.70;99.90
31735;DHT22;18313;48.518;9.124;2023-08-24T08:24:50;23.90;99.90
31735;DHT22;18313;48.518;9.124;2023-08-24T08:27:17;24.20;99.90
31735;DHT22;18313;48.518;9.124;2023-08-24T08:29:44;24.50;99.90
31735;DHT22;18313;48.518;9.124;2023-08-24T08:32:11;24.80;99.90
31735;DHT22;18313;48.518;9.124;2023-08-24T08:34:39;25.00;99.90
31735;DHT22;18313;48.518;9.124;2023-08-24T08:37:06;25.30;99.90
31735;DHT22;18313;48.518;9.124;2023-08-24T08:39:33;25.70;99.90
31735;DHT22;18313;48.518;9.124;2023-08-24T08:42:01;26.00;99.90
31735;DHT22;18313;48.518;9.124;2023-08-24T08:44:32;26.30;99.90
31735;DHT22;18313;48.518;9.124;2023-08-24T08:47:00;26.40;99.90
31735;DHT22;18313;48.518;9.124;2023-08-24T08:49:30;26.40;99.90
31735;DHT22;18313;48.518;9.124;2023-08-24T08:51:58;26.70;99.90
31735;DHT22;18313;48.518;9.124;2023-08-24T08:54:26;26.90;99.90
31735;DHT22;18313;48.518;9.124;2023-08-24T08:56:55;27.00;99.90
31735;DHT22;18313;48.518;9.124;2023-08-24T08:59:22;26.90;99.90
31735;DHT22;18313;48.518;9.124;2023-08-24T09:01:51;27.10;99.90
31735;DHT22;18313;48.518;9.124;2023-08-24T09:04:18;27.10;99.90
31735;DHT22;18313;48.518;9.124;2023-08-24T09:06:46;27.20;99.90
31735;DHT22;18313;48.518;9.124;2023-08-24T09:09:14;27.40;99.60
31735;DHT22;18313;48.518;9.124;2023-08-24T09:11:41;27.60;99.70
31735;DHT22;18313;48.518;9.124;2023-08-24T09:14:09;27.60;99.60
31735;DHT22;18313;48.518;9.124;2023-08-24T09:16:36;27.90;99.00
31735;DHT22;18313;48.518;9.124;2023-08-24T09:19:05;28.10;98.80
31735;DHT22;18313;48.518;9.124;2023-08-24T09:21:39;28.30;98.30
31735;DHT22;18313;48.518;9.124;2023-08-24T09:24:06;28.20;99.00
31735;DHT22;18313;48.518;9.124;2023-08-24T09:26:35;28.30;98.80
31735;DHT22;18313;48.518;9.124;2023-08-24T09:29:13;28.40;98.60
31735;DHT22;18313;48.518;9.124;2023-08-24T09:31:43;28.40;98.50
31735;DHT22;18313;48.518;9.124;2023-08-24T09:34:13;28.50;98.50
31735;DHT22;18313;48.518;9.124;2023-08-24T09:36:40;28.60;98.70
31735;DHT22;18313;48.518;9.124;2023-08-24T09:39:07;29.10;98.10
31735;DHT22;18313;48.518;9.124;2023-08-24T09:41:45;29.10;98.10
31735;DHT22;18313;48.518;9.124;2023-08-24T09:44:12;29.50;97.40
31735;DHT22;18313;48.518;9.124;2023-08-24T09:46:40;29.80;97.40
31735;DHT22;18313;48.518;9.124;2023-08-24T09:49:11;29.90;97.30
31735;DHT22;18313;48.518;9.124;2023-08-24T09:51:39;30.00;97.00
31735;DHT22;18313;48.518;9.124;2023-08-24T09:54:08;30.30;97.30
31735;DHT22;18313;48.518;9.124;2023-08-24T09:56:40;30.50;96.80
31735;DHT22;18313;48.518;9.124;2023-08-24T09:59:13;30.60;96.80
31735;DHT22;18313;48.518;9.124;2023-08-24T10:01:42;30.80;97.20
31735;DHT22;18313;48.518;9.124;2023-08-24T10:04:12;30.70;96.30
31735;DHT22;18313;48.518;9.124;2023-08-24T10:06:40;30.60;96.70
31735;DHT22;18313;48.518;9.124;2023-08-24T10:09:10;30.70;96.60
31735;DHT22;18313;48.518;9.124;2023-08-24T10:11:46;30.90;96.40
31735;DHT22;18313;48.518;9.124;2023-08-24T10:14:21;31.20;96.20
31735;DHT22;18313;48.518;9.124;2023-08-24T10:16:49;31.30;96.10
31735;DHT22;18313;48.518;9.124;2023-08-24T10:19:17;31.60;95.60
31735;DHT22;18313;48.518;9.124;2023-08-24T10:21:44;32.00;95.00
31735;DHT22;18313;48.518;9.124;2023-08-24T10:24:13;32.10;94.50
31735;DHT22;18313;48.518;9.124;2023-08-24T10:26:42;32.10;94.70
31735;DHT22;18313;48.518;9.124;2023-08-24T10:29:10;32.20;94.70
31735;DHT22;18313;48.518;9.124;2023-08-24T10:31:37;32.30;94.50
31735;DHT22;18313;48.518;9.124;2023-08-24T10:34:05;32.20;94.70
31735;DHT22;18313;48.518;9.124;2023-08-24T10:36:33;32.20;94.70
31735;DHT22;18313;48.518;9.124;2023-08-24T10:39:05;32.20;94.40
31735;DHT22;18313;48.518;9.124;2023-08-24T10:41:49;32.30;94.60
31735;DHT22;18313;48.518;9.124;2023-08-24T10:44:34;32.40;94.20
31735;DHT22;18313;48.518;9.124;2023-08-24T10:47:11;32.30;94.90
31735;DHT22;18313;48.518;9.124;2023-08-24T10:49:39;32.60;94.50
31735;DHT22;18313;48.518;9.124;2023-08-24T10:52:26;32.80;93.90
31735;DHT22;18313;48.518;9.124;2023-08-24T10:54:56;33.20;93.80
31735;DHT22;18313;48.518;9.124;2023-08-24T10:57:25;33.20;94.00
31735;DHT22;18313;48.518;9.124;2023-08-24T11:00:08;33.20;93.90
31735;DHT22;18313;48.518;9.124;2023-08-24T11:07:48;32.50;94.10
31735;DHT22;18313;48.518;9.124;2023-08-24T11:10:18;32.40;94.00
31735;DHT22;18313;48.518;9.124;2023-08-24T11:13:11;32.40;94.30
31735;DHT22;18313;48.518;9.124;2023-08-24T11:15:39;32.40;94.60
31735;DHT22;18313;48.518;9.124;2023-08-24T11:20:47;32.50;94.20
31735;DHT22;18313;48.518;9.124;2023-08-24T11:23:18;32.70;93.90
31735;DHT22;18313;48.518;9.124;2023-08-24T11:25:46;33.00;94.00
31735;DHT22;18313;48.518;9.124;2023-08-24T11:28:18;33.40;93.90
31735;DHT22;18313;48.518;9.124;2023-08-24T11:30:47;33.70;93.60
31735;DHT22;18313;48.518;9.124;2023-08-24T11:33:14;33.50;93.20
31735;DHT22;18313;48.518;9.124;2023-08-24T11:35:45;33.40;93.60
31735;DHT22;18313;48.518;9.124;2023-08-24T11:38:12;33.60;93.30
31735;DHT22;18313;48.518;9.124;2023-08-24T11:40:39;33.90;93.30
31735;DHT22;18313;48.518;9.124;2023-08-24T11:43:06;34.10;92.30
31735;DHT22;18313;48.518;9.124;2023-08-24T11:45:35;34.40;92.50
31735;DHT22;18313;48.518;9.124;2023-08-24T11:48:07;34.40;92.60
31735;DHT22;18313;48.518;9.124;2023-08-24T11:50:34;34.80;92.70
31735;DHT22;18313;48.518;9.124;2023-08-24T11:53:07;35.00;92.20
31735;DHT22;18313;48.518;9.124;2023-08-24T11:55:34;35.50;91.70
31735;DHT22;18313;48.518;9.124;2023-08-24T11:58:17;35.80;91.00
31735;DHT22;18313;48.518;9.124;2023-08-24T12:00:46;36.10;91.20
31735;DHT22;18313;48.518;9.124;2023-08-24T12:03:13;36.40;91.10
31735;DHT22;18313;48.518;9.124;2023-08-24T12:05:41;36.70;89.90
31735;DHT22;18313;48.518;9.124;2023-08-24T12:08:10;36.80;90.20
31735;DHT22;18313;48.518;9.124;2023-08-24T12:10:42;37.10;90.10
31735;DHT22;18313;48.518;9.124;2023-08-24T12:13:11;37.30;90.30
31735;DHT22;18313;48.518;9.124;2023-08-24T12:15:40;37.60;87.60
31735;DHT22;18313;48.518;9.124;2023-08-24T12:18:12;38.00;88.40
31735;DHT22;18313;48.518;9.124;2023-08-24T12:20:40;38.10;86.10
31735;DHT22;18313;48.518;9.124;2023-08-24T12:23:09;38.20;85.10
31735;DHT22;18313;48.518;9.124;2023-08-24T12:25:37;38.30;86.00
31735;DHT22;18313;48.518;9.124;2023-08-24T12:28:11;38.60;85.10
31735;DHT22;18313;48.518;9.124;2023-08-24T12:30:45;38.90;85.80
31735;DHT22;18313;48.518;9.124;2023-08-24T12:33:29;39.40;84.50
31735;DHT22;18313;48.518;9.124;2023-08-24T12:35:56;39.60;82.50
31735;DHT22;18313;48.518;9.124;2023-08-24T12:38:26;39.70;82.70
31735;DHT22;18313;48.518;9.124;2023-08-24T12:40:53;39.50;82.00
31735;DHT22;18313;48.518;9.124;2023-08-24T12:43:21;39.70;82.30
31735;DHT22;18313;48.518;9.124;2023-08-24T12:45:48;39.60;81.30
31735;DHT22;18313;48.518;9.124;2023-08-24T12:48:15;39.60;81.60
31735;DHT22;18313;48.518;9.124;2023-08-24T12:50:42;39.80;82.30
31735;DHT22;18313;48.518;9.124;2023-08-24T12:53:09;39.80;80.50
31735;DHT22;18313;48.518;9.124;2023-08-24T12:55:39;39.90;80.90
31735;DHT22;18313;48.518;9.124;2023-08-24T12:58:06;39.80;79.90
31735;DHT22;18313;48.518;9.124;2023-08-24T13:00:33;39.40;80.70
31735;DHT22;18313;48.518;9.124;2023-08-24T13:03:01;39.40;82.30
31735;DHT22;18313;48.518;9.124;2023-08-24T13:05:28;39.80;81.70
31735;DHT22;18313;48.518;9.124;2023-08-24T13:07:55;40.20;79.60
31735;DHT22;18313;48.518;9.124;2023-08-24T13:10:23;40.40;78.40
31735;DHT22;18313;48.518;9.124;2023-08-24T13:12:51;40.30;79.40
31735;DHT22;18313;48.518;9.124;2023-08-24T13:15:18;40.50;79.00
31735;DHT22;18313;48.518;9.124;2023-08-24T13:17:46;40.30;77.40
31735;DHT22;18313;48.518;9.124;2023-08-24T13:20:13;40.30;79.10
31735;DHT22;18313;48.518;9.124;2023-08-24T13:22:41;40.30;79.80
31735;DHT22;18313;48.518;9.124;2023-08-24T13:25:08;40.00;76.70
31735;DHT22;18313;48.518;9.124;2023-08-24T13:27:35;39.70;77.80
31735;DHT22;18313;48.518;9.124;2023-08-24T13:30:03;39.40;77.60
31735;DHT22;18313;48.518;9.124;2023-08-24T13:32:31;39.10;77.30
31735;DHT22;18313;48.518;9.124;2023-08-24T13:34:58;39.10;77.90
31735;DHT22;18313;48.518;9.124;2023-08-24T13:37:25;39.00;77.70
31735;DHT22;18313;48.518;9.124;2023-08-24T13:39:52;39.10;79.10
31735;DHT22;18313;48.518;9.124;2023-08-24T13:42:19;39.20;78.30
31735;DHT22;18313;48.518;9.124;2023-08-24T13:44:47;38.50;78.00
31735;DHT22;18313;48.518;9.124;2023-08-24T13:47:13;38.40;78.00
31735;DHT22;18313;48.518;9.124;2023-08-24T13:49:40;38.50;79.10
31735;DHT22;18313;48.518;9.124;2023-08-24T13:52:08;38.80;78.70
31735;DHT22;18313;48.518;9.124;2023-08-24T13:54:35;38.60;80.30
31735;DHT22;18313;48.518;9.124;2023-08-24T13:57:02;38.70;78.70
31735;DHT22;18313;48.518;9.124;2023-08-24T13:59:29;38.70;78.00
31735;DHT22;18313;48.518;9.124;2023-08-24T14:01:56;38.60;77.50
31735;DHT22;18313;48.518;9.124;2023-08-24T14:04:24;38.60;78.10
31735;DHT22;18313;48.518;9.124;2023-08-24T14:06:51;38.70;77.70
31735;DHT22;18313;48.518;9.124;2023-08-24T14:09:18;38.60;77.40
31735;DHT22;18313;48.518;9.124;2023-08-24T14:11:45;38.60;77.60
31735;DHT22;18313;48.518;9.124;2023-08-24T14:14:12;38.70;78.10
31735;DHT22;18313;48.518;9.124;2023-08-24T14:16:39;38.70;77.10
31735;DHT22;18313;48.518;9.124;2023-08-24T14:19:06;38.70;77.00
31735;DHT22;18313;48.518;9.124;2023-08-24T14:21:33;38.90;76.40
31735;DHT22;18313;48.518;9.124;2023-08-24T14:24:11;39.00;76.10
31735;DHT22;18313;48.518;9.124;2023-08-24T14:26:38;39.10;75.90
31735;DHT22;18313;48.518;9.124;2023-08-24T14:29:06;39.10;75.40
31735;DHT22;18313;48.518;9.124;2023-08-24T14:31:33;38.90;76.10
31735;DHT22;18313;48.518;9.124;2023-08-24T14:34:00;39.00;76.30
31735;DHT22;18313;48.518;9.124;2023-08-24T14:36:28;38.90;74.10
31735;DHT22;18313;48.518;9.124;2023-08-24T14:38:55;38.80;74.40
31735;DHT22;18313;48.518;9.124;2023-08-24T14:41:23;38.80;75.90
31735;DHT22;18313;48.518;9.124;2023-08-24T14:43:50;38.60;76.00
31735;DHT22;18313;48.518;9.124;2023-08-24T14:46:17;38.60;76.60
31735;DHT22;18313;48.518;9.124;2023-08-24T14:48:45;38.60;77.30
31735;DHT22;18313;48.518;9.124;2023-08-24T14:51:12;38.50;76.10
31735;DHT22;18313;48.518;9.124;2023-08-24T14:53:39;38.50;76.50
31735;DHT22;18313;48.518;9.124;2023-08-24T14:56:06;38.50;76.80
31735;DHT22;18313;48.518;9.124;2023-08-24T14:58:33;38.50;76.70
31735;DHT22;18313;48.518;9.124;2023-08-24T15:01:01;38.40;78.00
31735;DHT22;18313;48.518;9.124;2023-08-24T15:03:28;38.20;78.70
31735;DHT22;18313;48.518;9.124;2023-08-24T15:06:03;37.80;78.00
31735;DHT22;18313;48.518;9.124;2023-08-24T15:08:31;37.40;78.30
31735;DHT22;18313;48.518;9.124;2023-08-24T15:11:02;37.00;79.10
31735;DHT22;18313;48.518;9.124;2023-08-24T15:13:33;36.60;80.40
31735;DHT22;18313;48.518;9.124;2023-08-24T15:16:01;36.30;80.50
31735;DHT22;18313;48.518;9.124;2023-08-24T15:18:30;36.10;80.60
31735;DHT22;18313;48.518;9.124;2023-08-24T15:20:57;35.90;81.20
31735;DHT22;18313;48.518;9.124;2023-08-24T15:23:26;35.30;83.50
31735;DHT22;18313;48.518;9.124;2023-08-24T15:25:55;34.70;85.30
31735;DHT22;18313;48.518;9.124;2023-08-24T15:28:24;34.30;87.10
31735;DHT22;18313;48.518;9.124;2023-08-24T15:30:51;33.60;88.90
31735;DHT22;18313;48.518;9.124;2023-08-24T15:33:19;33.20;90.20
31735;DHT22;18313;48.518;9.124;2023-08-24T15:35:47;32.70;91.00
31735;DHT22;18313;48.518;9.124;2023-08-24T15:38:14;32.20;91.30
31735;DHT22;18313;48.518;9.124;2023-08-24T15:40:41;32.10;91.40
31735;DHT22;18313;48.518;9.124;2023-08-24T15:43:11;31.60;91.90
31735;DHT22;18313;48.518;9.124;2023-08-24T15:45:38;31.40;92.50
31735;DHT22;18313;48.518;9.124;2023-08-24T15:48:06;31.10;92.60
31735;DHT22;18313;48.518;9.124;2023-08-24T15:50:33;30.90;93.00